createdAt,value
2022-09-10T00:00:55.458Z,3.90
2022-09-10T00:03:58.263Z,4.07
2022-09-10T00:07:00.826Z,4.03
2022-09-10T00:10:03.398Z,4.25
2022-09-10T00:13:07.171Z,4.50
2022-09-10T00:16:12.767Z,3.30
2022-09-10T00:19:16.152Z,2.78
2022-09-10T00:22:18.699Z,2.72
2022-09-10T00:25:21.170Z,2.70
2022-09-10T00:28:25.949Z,2.80
2022-09-10T00:31:30.149Z,2.83
2022-09-10T00:34:33.004Z,2.87
2022-09-10T00:37:35.410Z,2.75
2022-09-10T00:40:38.795Z,2.90
2022-09-10T00:44:02.516Z,2.30
2022-09-10T00:47:06.691Z,2.67
2022-09-10T00:50:30.647Z,2.50
2022-09-10T00:53:33.642Z,2.30
2022-09-10T00:56:36.973Z,2.40
2022-09-10T00:59:42.013Z,2.30
2022-09-10T01:02:44.594Z,2.20
2022-09-10T01:05:47.607Z,2.37
2022-09-10T01:08:50.093Z,2.45
2022-09-10T01:12:22.236Z,2.30
2022-09-10T01:15:30.727Z,2.58
2022-09-10T01:18:51.696Z,2.53
2022-09-10T01:22:20.368Z,2.60
2022-09-10T01:25:50.041Z,2.67
2022-09-10T01:29:34.656Z,2.50
2022-09-10T01:32:55.279Z,2.60
2022-09-10T01:36:05.354Z,2.50
2022-09-10T01:39:07.966Z,2.55
2022-09-10T01:42:10.523Z,2.30
2022-09-10T01:45:15.109Z,2.20
2022-09-10T01:48:20.562Z,2.30
2022-09-10T01:51:41.667Z,2.00
2022-09-10T01:55:10.754Z,2.12
2022-09-10T01:58:28.621Z,2.28
2022-09-10T02:01:43.617Z,2.45
2022-09-10T02:04:48.039Z,1.90
2022-09-10T02:07:53.766Z,2.10
2022-09-10T02:10:59.378Z,1.92
2022-09-10T02:14:02.018Z,1.90
2022-09-10T02:17:04.536Z,2.10
2022-09-10T02:20:11.640Z,2.00
2022-09-10T02:23:15.070Z,2.30
2022-09-10T02:26:17.557Z,2.12
2022-09-10T02:29:19.931Z,2.12
2022-09-10T02:32:22.456Z,2.50
2022-09-10T02:35:24.941Z,2.62
2022-09-10T02:38:29.285Z,2.17
2022-09-10T02:41:34.314Z,2.55
2022-09-10T02:44:37.621Z,2.80
2022-09-10T02:47:40.287Z,2.90
2022-09-10T02:50:45.558Z,2.90
2022-09-10T02:53:47.960Z,2.70
2022-09-10T02:56:50.527Z,2.75
2022-09-10T02:59:56.949Z,2.70
2022-09-10T03:03:02.958Z,2.30
2022-09-10T03:06:06.078Z,2.35
2022-09-10T03:09:08.536Z,2.30
2022-09-10T03:12:10.987Z,2.00
2022-09-10T03:15:13.641Z,1.70
2022-09-10T03:18:16.147Z,1.70
2022-09-10T03:21:21.481Z,1.73
2022-09-10T03:24:25.387Z,1.77
2022-09-10T03:27:27.808Z,1.80
2022-09-10T03:30:30.250Z,1.73
2022-09-10T03:33:32.963Z,1.90
2022-09-10T03:36:35.588Z,1.80
2022-09-10T03:39:38.061Z,1.80
2022-09-10T03:42:40.690Z,1.70
2022-09-10T03:45:44.601Z,1.70
2022-09-10T03:48:47.125Z,1.87
2022-09-10T03:51:49.548Z,2.33
2022-09-10T03:54:52.206Z,2.13
2022-09-10T03:57:54.634Z,1.92
2022-09-10T04:00:57.126Z,1.90
2022-09-10T04:03:59.570Z,2.00
2022-09-10T04:07:02.058Z,1.80
2022-09-10T04:10:04.910Z,1.93
2022-09-10T04:13:07.433Z,1.73
2022-09-10T04:16:10.059Z,1.87
2022-09-10T04:19:12.974Z,1.55
2022-09-10T04:22:15.390Z,1.60
2022-09-10T04:25:19.042Z,1.70
2022-09-10T04:28:21.415Z,1.70
2022-09-10T04:31:23.882Z,1.52
2022-09-10T04:34:26.358Z,1.50
2022-09-10T04:37:29.504Z,1.35
2022-09-10T04:40:32.149Z,1.50
2022-09-10T04:43:34.877Z,1.70
2022-09-10T04:46:37.333Z,1.60
2022-09-10T04:49:39.768Z,2.00
2022-09-10T04:52:43.425Z,2.12
2022-09-10T04:55:47.237Z,2.10
2022-09-10T04:58:49.634Z,2.12
2022-09-10T05:01:52.392Z,2.80
2022-09-10T05:04:54.940Z,2.83
2022-09-10T05:07:57.497Z,3.20
2022-09-10T05:11:03.009Z,3.10
2022-09-10T05:14:05.499Z,3.47
2022-09-10T05:17:08.151Z,2.97
2022-09-10T05:20:10.983Z,3.03
2022-09-10T05:23:13.525Z,3.17
2022-09-10T05:26:15.973Z,3.13
2022-09-10T05:29:18.510Z,3.55
2022-09-10T05:32:20.876Z,3.30
2022-09-10T05:35:23.417Z,3.33
2022-09-10T05:38:26.687Z,2.80
2022-09-10T05:41:31.248Z,3.20
2022-09-10T05:44:34.073Z,3.22
2022-09-10T05:47:37.726Z,3.28
2022-09-10T05:50:40.434Z,3.78
2022-09-10T05:53:42.915Z,3.60
2022-09-10T05:56:45.399Z,3.80
2022-09-10T05:59:47.757Z,3.70
2022-09-10T06:02:51.240Z,3.58
2022-09-10T06:05:55.915Z,3.90
2022-09-10T06:08:58.376Z,3.50
2022-09-10T06:12:01.040Z,3.50
2022-09-10T06:15:03.815Z,4.20
2022-09-10T06:18:06.743Z,4.43
2022-09-10T06:21:13.137Z,4.93
2022-09-10T06:24:15.604Z,4.93
2022-09-10T06:27:18.151Z,5.63
2022-09-10T06:30:20.938Z,5.75
2022-09-10T06:33:23.448Z,5.93
2022-09-10T06:36:28.683Z,6.12
2022-09-10T06:39:31.146Z,5.87
2022-09-10T06:42:33.588Z,5.80
2022-09-10T06:45:40.164Z,5.87
2022-09-10T06:48:47.571Z,5.72
2022-09-10T06:51:51.039Z,6.03
2022-09-10T06:54:53.548Z,5.50
2022-09-10T06:57:55.964Z,5.00
2022-09-10T07:00:58.579Z,5.20
2022-09-10T07:04:01.977Z,4.50
2022-09-10T07:07:04.462Z,3.83
2022-09-10T07:10:07.739Z,3.37
2022-09-10T07:13:10.905Z,3.30
2022-09-10T07:16:18.496Z,2.90
2022-09-10T07:19:21.114Z,2.90
2022-09-10T07:22:23.669Z,2.95
2022-09-10T07:25:26.776Z,2.78
2022-09-10T07:28:29.219Z,2.60
2022-09-10T07:31:38.405Z,2.97
2022-09-10T07:34:41.189Z,2.45
2022-09-10T07:37:45.307Z,2.62
2022-09-10T07:40:48.740Z,2.60
2022-09-10T07:43:53.973Z,2.60
2022-09-10T07:46:56.581Z,2.72
2022-09-10T07:50:00.370Z,2.65
2022-09-10T07:53:03.104Z,2.78
2022-09-10T07:56:07.505Z,2.30
2022-09-10T07:59:13.496Z,2.40
2022-09-10T08:02:16.022Z,2.50
2022-09-10T08:12:53.659Z,2.22
2022-09-10T08:16:05.395Z,2.37
2022-09-10T08:19:15.051Z,2.10
2022-09-10T08:22:18.413Z,2.10
2022-09-10T08:25:25.136Z,1.92
2022-09-10T08:28:33.560Z,1.98
2022-09-10T08:31:37.207Z,2.10
2022-09-10T08:34:40.772Z,2.58
2022-09-10T08:37:43.825Z,2.12
2022-09-10T08:40:53.778Z,1.85
2022-09-10T08:44:12.662Z,2.25
2022-09-10T08:47:21.395Z,2.30
2022-09-10T08:50:36.455Z,2.65
2022-09-10T08:54:07.520Z,2.40
2022-09-10T08:57:53.057Z,2.75
2022-09-10T09:01:03.051Z,2.70
2022-09-10T09:08:48.424Z,2.42
2022-09-10T09:12:19.083Z,2.55
2022-09-10T09:15:31.867Z,2.70
2022-09-10T09:19:03.142Z,2.55
2022-09-10T09:22:28.332Z,2.53
2022-09-10T09:25:50.495Z,2.42
2022-09-10T09:29:08.170Z,2.08
2022-09-10T09:32:19.529Z,2.40
2022-09-10T09:35:31.597Z,2.60
2022-09-10T09:38:37.609Z,2.57
2022-09-10T09:42:05.980Z,2.47
2022-09-10T09:45:34.964Z,2.75
2022-09-10T09:48:42.205Z,2.75
2022-09-10T09:51:57.102Z,2.65
2022-09-10T09:55:14.369Z,3.27
2022-09-10T09:58:21.224Z,2.50
2022-09-10T10:01:25.253Z,2.60
2022-09-10T10:04:33.949Z,2.95
2022-09-10T10:07:42.127Z,2.55
2022-09-10T10:10:51.832Z,2.90
2022-09-10T10:14:11.961Z,2.65
2022-09-10T10:17:32.996Z,3.08
2022-09-10T10:20:41.359Z,2.85
2022-09-10T10:23:44.536Z,2.78
2022-09-10T10:27:05.361Z,3.20
2022-09-10T10:30:17.018Z,2.78
2022-09-10T10:33:37.763Z,2.83
2022-09-10T10:37:13.604Z,2.95
2022-09-10T10:40:30.630Z,2.87
2022-09-10T10:43:58.551Z,2.97
2022-09-10T10:47:19.252Z,2.40
2022-09-10T10:50:31.082Z,2.83
2022-09-10T10:54:15.425Z,2.72
2022-09-10T10:57:43.380Z,2.80
2022-09-10T11:01:01.574Z,3.10
2022-09-10T11:04:13.133Z,2.83
2022-09-10T11:07:34.935Z,3.00
2022-09-10T11:10:41.301Z,2.85
2022-09-10T11:13:51.536Z,3.03
2022-09-10T11:17:01.226Z,3.23
2022-09-10T11:20:30.117Z,2.80
2022-09-10T11:23:47.885Z,2.83
2022-09-10T11:26:59.940Z,2.75
2022-09-10T11:30:19.390Z,2.85
2022-09-10T11:33:46.963Z,3.13
2022-09-10T11:36:54.931Z,3.08
2022-09-10T11:39:59.877Z,2.45
2022-09-10T11:43:14.666Z,2.47
2022-09-10T11:46:24.404Z,2.65
2022-09-10T11:49:35.544Z,2.50
2022-09-10T11:52:38.540Z,2.70
2022-09-10T11:55:49.392Z,2.80
2022-09-10T11:59:23.134Z,3.00
2022-09-10T12:02:38.185Z,2.78
2022-09-10T12:06:15.307Z,2.70
2022-09-10T12:09:28.242Z,2.80
2022-09-10T12:12:37.817Z,2.80
2022-09-10T12:15:40.417Z,2.75
2022-09-10T12:18:45.630Z,2.58
2022-09-10T12:21:51.210Z,2.80
2022-09-10T12:25:06.333Z,2.87
2022-09-10T12:28:43.698Z,2.70
2022-09-10T12:32:21.742Z,3.10
2022-09-10T12:35:33.068Z,2.90
2022-09-10T12:38:44.884Z,2.67
2022-09-10T12:41:47.911Z,2.78
2022-09-10T12:44:50.385Z,2.90
2022-09-10T12:47:52.924Z,2.83
2022-09-10T12:51:00.707Z,3.10
2022-09-10T12:54:24.650Z,2.90
2022-09-10T12:58:02.765Z,2.92
2022-09-10T13:01:20.719Z,2.90
2022-09-10T13:04:28.804Z,2.80
2022-09-10T13:07:41.836Z,2.90
2022-09-10T13:11:03.578Z,2.80
2022-09-10T13:14:06.332Z,3.10
2022-09-10T13:17:57.526Z,3.12
2022-09-10T13:21:00.450Z,3.12
2022-09-10T13:24:03.245Z,3.20
2022-09-10T13:27:17.868Z,3.03
2022-09-10T13:30:27.624Z,2.80
2022-09-10T13:33:33.523Z,2.92
2022-09-10T13:36:53.891Z,3.00
2022-09-10T13:40:02.678Z,3.47
2022-09-10T13:43:21.027Z,3.00
2022-09-10T13:46:44.545Z,3.03
2022-09-10T13:49:53.870Z,3.05
2022-09-10T13:53:00.128Z,2.97
2022-09-10T13:56:13.562Z,3.03
2022-09-10T13:59:24.122Z,2.80
2022-09-10T14:02:47.736Z,2.95
2022-09-10T14:05:53.403Z,3.10
2022-09-10T14:09:03.912Z,2.97
2022-09-10T14:12:08.253Z,3.03
2022-09-10T14:15:17.405Z,3.13
2022-09-10T14:18:20.845Z,2.90
2022-09-10T14:21:27.296Z,3.10
2022-09-10T14:24:56.747Z,3.10
2022-09-10T14:28:24.946Z,2.97
2022-09-10T14:31:38.920Z,3.30
2022-09-10T14:34:41.397Z,3.10
2022-09-10T14:37:43.919Z,2.97
2022-09-10T14:40:47.840Z,3.00
2022-09-10T14:43:55.427Z,2.80
2022-09-10T14:47:20.610Z,3.30
2022-09-10T14:50:28.020Z,2.80
2022-09-10T14:53:30.569Z,2.60
2022-09-10T14:56:39.406Z,2.60
2022-09-10T14:59:59.154Z,2.85
2022-09-10T15:03:02.612Z,2.70
2022-09-10T15:06:10.597Z,2.67
2022-09-10T15:09:15.151Z,2.65
2022-09-10T15:12:26.673Z,2.75
2022-09-10T15:15:30.969Z,2.90
2022-09-10T15:18:33.593Z,2.83
2022-09-10T15:21:36.139Z,2.78
2022-09-10T15:24:58.769Z,2.42
2022-09-10T15:38:24.075Z,2.65
2022-09-10T15:41:26.921Z,2.60
2022-09-10T15:44:29.545Z,2.70
2022-09-10T15:47:36.381Z,2.60
2022-09-10T15:50:38.882Z,2.50
2022-09-10T15:53:50.108Z,2.50
2022-09-10T15:56:56.319Z,2.25
2022-09-10T16:00:09.468Z,2.50
2022-09-10T16:03:12.110Z,2.40
2022-09-10T16:06:15.912Z,2.40
2022-09-10T16:09:18.768Z,2.60
2022-09-10T16:12:21.605Z,2.40
2022-09-10T16:15:25.766Z,2.30
2022-09-10T16:18:32.449Z,2.62
2022-09-10T16:21:40.661Z,2.50
2022-09-10T16:24:46.413Z,2.28
2022-09-10T16:27:48.989Z,2.10
2022-09-10T16:34:19.021Z,2.40
2022-09-10T16:37:32.359Z,2.20
2022-09-10T16:40:34.936Z,1.98
2022-09-10T16:43:37.737Z,2.12
2022-09-10T16:46:40.788Z,2.10
2022-09-10T16:49:43.814Z,2.10
2022-09-10T16:52:48.998Z,1.97
2022-09-10T16:55:51.517Z,1.70
2022-09-10T16:58:54.265Z,1.70
2022-09-10T17:02:00.596Z,1.60
2022-09-10T17:05:03.729Z,1.40
2022-09-10T17:08:06.488Z,1.47
2022-09-10T17:11:08.945Z,1.42
2022-09-10T17:14:11.888Z,1.27
2022-09-10T17:17:14.580Z,1.20
2022-09-10T17:20:23.422Z,1.33
2022-09-10T17:23:35.245Z,1.40
2022-09-10T17:26:47.394Z,1.20
2022-09-10T17:29:49.893Z,1.40
2022-09-10T17:32:52.530Z,1.05
2022-09-10T17:36:02.520Z,1.20
2022-09-10T17:39:05.053Z,1.73
2022-09-10T17:42:07.590Z,1.40
2022-09-10T17:45:10.721Z,1.30
2022-09-10T17:48:13.236Z,1.40
2022-09-10T17:51:20.687Z,2.00
2022-09-10T17:54:24.008Z,1.20
2022-09-10T17:57:35.738Z,1.10
2022-09-10T18:00:40.875Z,1.25
2022-09-10T18:03:43.342Z,1.30
2022-09-10T18:06:50.197Z,1.30
2022-09-10T18:09:57.703Z,1.50
2022-09-10T18:13:00.623Z,1.25
2022-09-10T18:16:09.206Z,2.35
2022-09-10T18:19:19.518Z,1.30
2022-09-10T18:22:41.110Z,1.60
2022-09-10T18:25:47.853Z,1.50
2022-09-10T18:29:11.709Z,1.20
2022-09-10T18:32:15.064Z,1.30
2022-09-10T18:35:18.285Z,1.55
2022-09-10T18:38:23.181Z,1.85
2022-09-10T18:41:31.318Z,1.40
2022-09-10T18:44:39.801Z,1.00
2022-09-10T18:47:45.361Z,1.30
2022-09-10T18:50:54.191Z,1.10
2022-09-10T18:54:01.459Z,1.40
2022-09-10T18:57:07.743Z,0.90
2022-09-10T19:00:11.227Z,1.08
2022-09-10T19:03:13.781Z,0.98
2022-09-10T19:06:29.077Z,1.20
2022-09-10T19:09:31.871Z,1.10
2022-09-10T19:12:34.628Z,1.00
2022-09-10T19:15:41.339Z,1.33
2022-09-10T19:18:44.144Z,1.20
2022-09-10T19:25:06.710Z,1.00
2022-09-10T19:28:20.245Z,1.00
2022-09-10T19:31:31.466Z,0.90
2022-09-10T19:34:34.067Z,0.90
2022-09-10T19:37:36.523Z,0.90
2022-09-10T19:40:40.532Z,0.82
2022-09-10T19:43:43.166Z,0.70
2022-09-10T19:46:46.893Z,0.73
2022-09-10T19:49:51.982Z,0.80
2022-09-10T19:53:00.192Z,0.80
2022-09-10T19:56:19.735Z,0.80
2022-09-10T19:59:23.108Z,0.80
2022-09-10T20:02:25.638Z,0.80
2022-09-10T20:05:29.030Z,0.75
2022-09-10T20:08:34.061Z,0.70
2022-09-10T20:11:36.775Z,0.95
2022-09-10T20:14:39.315Z,0.80
2022-09-10T20:17:41.747Z,0.70
2022-09-10T20:20:44.812Z,0.75
2022-09-10T20:23:52.248Z,0.73
2022-09-10T20:27:00.362Z,0.70
2022-09-10T20:30:03.789Z,0.60
2022-09-10T20:40:20.177Z,0.70
2022-09-10T20:43:29.280Z,0.70
2022-09-10T20:46:32.449Z,0.70
2022-09-10T20:53:30.714Z,0.70
2022-09-10T20:56:33.499Z,0.77
2022-09-10T20:59:40.930Z,0.80
2022-09-10T21:02:46.976Z,0.80
2022-09-10T21:05:58.475Z,0.90
2022-09-10T21:09:02.251Z,0.90
2022-09-10T21:12:15.193Z,1.10
2022-09-10T21:15:21.334Z,1.10
2022-09-10T21:18:30.412Z,0.90
2022-09-10T21:21:34.717Z,0.70
2022-09-10T21:24:40.139Z,0.65
2022-09-10T21:27:44.242Z,0.60
2022-09-10T21:30:46.719Z,0.70
2022-09-10T21:41:44.031Z,0.70
2022-09-10T21:44:46.471Z,0.90
2022-09-10T21:47:53.284Z,0.80
2022-09-10T21:51:12.799Z,1.00
2022-09-10T22:01:45.741Z,0.80
2022-09-10T22:05:03.132Z,0.70
2022-09-10T22:08:07.259Z,0.90
2022-09-10T22:11:36.017Z,0.60
2022-09-10T22:14:38.627Z,0.70
2022-09-10T22:17:43.282Z,0.68
2022-09-10T22:20:45.747Z,0.90
2022-09-10T22:23:54.023Z,0.70
2022-09-10T22:27:01.776Z,0.60
2022-09-10T22:30:07.698Z,0.70
2022-09-10T22:33:10.094Z,0.82
2022-09-10T22:36:26.524Z,0.70
2022-09-10T22:39:37.306Z,0.80
2022-09-10T22:42:39.893Z,0.75
2022-09-10T22:45:42.279Z,0.60
2022-09-10T22:48:45.681Z,0.60
2022-09-10T22:51:58.778Z,0.60
2022-09-10T22:55:09.900Z,0.60
2022-09-10T22:58:12.991Z,0.70
2022-09-10T23:01:16.504Z,0.52
2022-09-10T23:04:25.949Z,0.60
2022-09-10T23:07:33.609Z,0.50
2022-09-10T23:10:42.031Z,0.60
2022-09-10T23:13:45.888Z,0.55
2022-09-10T23:20:12.450Z,0.60
2022-09-10T23:23:14.899Z,0.60
2022-09-10T23:26:19.893Z,0.63
2022-09-10T23:29:27.455Z,0.70
2022-09-10T23:32:30.046Z,0.60
2022-09-10T23:35:42.908Z,0.57
2022-09-10T23:38:45.575Z,0.50
2022-09-10T23:42:13.437Z,0.50
2022-09-10T23:45:15.869Z,0.60
2022-09-10T23:56:12.449Z,0.60
2022-09-10T23:59:15.488Z,0.50
